createdAt,value
2017-08-25T00:00:26.580Z,16.5
2017-08-25T00:01:25.640Z,16.5
2017-08-25T00:02:25.223Z,16.5
2017-08-25T00:03:24.533Z,16.5
2017-08-25T00:04:23.481Z,16.4
2017-08-25T00:05:23.041Z,16.4
2017-08-25T00:06:22.744Z,16.4
2017-08-25T00:07:21.552Z,16.4
2017-08-25T00:08:20.992Z,16.4
2017-08-25T00:09:20.542Z,16.3
2017-08-25T00:10:19.718Z,16.3
2017-08-25T00:11:19.019Z,16.3
2017-08-25T00:12:18.458Z,16.3
2017-08-25T00:13:17.649Z,16.3
2017-08-25T00:14:16.837Z,16.3
2017-08-25T00:15:16.148Z,16.3
2017-08-25T00:16:15.457Z,16.3
2017-08-25T00:17:14.898Z,16.3
2017-08-25T00:19:13.344Z,16.3
2017-08-25T00:20:12.785Z,16.3
2017-08-25T00:21:12.100Z,16.3
2017-08-25T00:22:11.144Z,16.3
2017-08-25T00:23:10.586Z,16.3
2017-08-25T00:24:10.015Z,16.3
2017-08-25T00:25:09.077Z,16.3
2017-08-25T00:26:08.511Z,16.3
2017-08-25T00:27:07.955Z,16.3
2017-08-25T00:27:38.074Z,16.3
2017-08-25T00:28:08.576Z,16.3
2017-08-25T00:28:38.947Z,16.3
2017-08-25T00:30:05.318Z,16.3
2017-08-25T00:31:05.253Z,16.3
2017-08-25T00:32:04.304Z,16.3
2017-08-25T00:33:03.733Z,16.3
2017-08-25T00:34:02.911Z,16.3
2017-08-25T00:35:02.482Z,16.3
2017-08-25T00:36:01.302Z,16.3
2017-08-25T00:37:00.621Z,16.3
2017-08-25T00:38:00.057Z,16.3
2017-08-25T00:38:59.370Z,16.3
2017-08-25T00:39:58.684Z,16.3
2017-08-25T00:40:58.235Z,16.3
2017-08-25T00:41:57.056Z,16.3
2017-08-25T00:42:56.368Z,16.4
2017-08-25T00:43:56.063Z,16.4
2017-08-25T00:44:54.744Z,16.4
2017-08-25T00:45:54.427Z,16.5
2017-08-25T00:46:53.732Z,16.5
2017-08-25T00:47:53.302Z,16.4
2017-08-25T00:49:51.757Z,16.4
2017-08-25T00:50:50.943Z,16.4
2017-08-25T00:51:50.129Z,16.4
2017-08-25T00:52:49.432Z,16.3
2017-08-25T00:53:48.611Z,16.3
2017-08-25T00:54:48.322Z,16.3
2017-08-25T00:55:47.242Z,16.3
2017-08-25T00:56:46.682Z,16.3
2017-08-25T00:57:46.125Z,16.3
2017-08-25T00:58:45.422Z,16.3
2017-08-25T00:59:44.734Z,16.2
2017-08-25T01:00:43.662Z,16.2
2017-08-25T01:01:42.991Z,16.2
2017-08-25T01:02:42.301Z,16.2
2017-08-25T01:03:42.115Z,16.1
2017-08-25T01:04:40.794Z,16.1
2017-08-25T01:05:40.484Z,16.1
2017-08-25T01:06:39.797Z,16.1
2017-08-25T01:07:38.985Z,16.1
2017-08-25T01:08:38.042Z,16.1
2017-08-25T01:09:37.230Z,16.1
2017-08-25T01:10:36.911Z,16
2017-08-25T01:11:36.216Z,16
2017-08-25T01:12:35.281Z,16
2017-08-25T01:13:34.457Z,16
2017-08-25T01:14:34.020Z,16
2017-08-25T01:15:33.588Z,15.9
2017-08-25T01:16:32.648Z,15.9
2017-08-25T01:17:31.579Z,15.9
2017-08-25T01:18:31.522Z,15.9
2017-08-25T01:19:30.590Z,15.9
2017-08-25T01:20:29.897Z,15.9
2017-08-25T01:21:29.078Z,15.9
2017-08-25T01:22:28.524Z,15.9
2017-08-25T01:23:27.719Z,15.9
2017-08-25T01:24:26.782Z,15.9
2017-08-25T01:25:26.240Z,15.9
2017-08-25T01:27:24.928Z,15.8
2017-08-25T01:28:24.413Z,15.8
2017-08-25T01:29:23.217Z,15.8
2017-08-25T01:30:22.645Z,15.8
2017-08-25T01:31:21.962Z,15.8
2017-08-25T01:32:21.389Z,15.8
2017-08-25T01:33:20.987Z,15.8
2017-08-25T01:34:20.068Z,15.7
2017-08-25T01:35:18.996Z,15.7
2017-08-25T01:36:18.307Z,15.7
2017-08-25T01:37:17.621Z,15.6
2017-08-25T01:38:17.443Z,15.6
2017-08-25T01:39:16.119Z,15.6
2017-08-25T01:40:15.551Z,15.6
2017-08-25T01:41:14.865Z,15.6
2017-08-25T01:42:14.297Z,15.6
2017-08-25T01:43:13.529Z,15.6
2017-08-25T01:44:12.975Z,15.6
2017-08-25T01:45:11.778Z,15.5
2017-08-25T01:46:11.467Z,15.5
2017-08-25T01:47:10.778Z,15.5
2017-08-25T01:48:10.097Z,15.5
2017-08-25T01:49:09.541Z,15.5
2017-08-25T01:50:08.732Z,15.5
2017-08-25T01:51:07.916Z,15.5
2017-08-25T01:52:07.244Z,15.5
2017-08-25T01:53:06.558Z,15.5
2017-08-25T01:54:05.624Z,15.5
2017-08-25T01:55:05.061Z,15.5
2017-08-25T01:57:03.264Z,15.5
2017-08-25T01:58:02.958Z,15.5
2017-08-25T01:59:02.264Z,15.5
2017-08-25T02:00:01.691Z,15.4
2017-08-25T02:01:00.509Z,15.4
2017-08-25T02:01:59.702Z,15.4
2017-08-25T02:02:59.139Z,15.4
2017-08-25T02:03:58.450Z,15.4
2017-08-25T02:04:57.880Z,15.4
2017-08-25T02:05:57.325Z,15.4
2017-08-25T02:06:56.502Z,15.4
2017-08-25T02:07:55.690Z,15.3
2017-08-25T02:08:54.995Z,15.3
2017-08-25T02:09:54.299Z,15.3
2017-08-25T02:11:52.991Z,15.3
2017-08-25T02:12:51.796Z,15.3
2017-08-25T02:13:51.500Z,15.3
2017-08-25T02:14:50.811Z,15.3
2017-08-25T02:15:49.873Z,15.3
2017-08-25T02:16:49.191Z,15.3
2017-08-25T02:17:48.628Z,15.3
2017-08-25T02:18:48.061Z,15.3
2017-08-25T02:20:46.121Z,15.3
2017-08-25T02:21:45.551Z,15.3
2017-08-25T02:22:44.979Z,15.3
2017-08-25T02:23:44.277Z,15.2
2017-08-25T02:24:43.716Z,15.2
2017-08-25T02:26:42.294Z,15.3
2017-08-25T02:27:41.234Z,15.3
2017-08-25T02:28:40.794Z,15.3
2017-08-25T02:29:40.105Z,15.3
2017-08-25T02:30:39.289Z,15.3
2017-08-25T02:31:38.349Z,15.3
2017-08-25T02:32:37.807Z,15.3
2017-08-25T02:33:37.264Z,15.3
2017-08-25T02:34:36.343Z,15.3
2017-08-25T02:35:35.781Z,15.3
2017-08-25T02:36:34.847Z,15.3
2017-08-25T02:37:34.308Z,15.3
2017-08-25T02:38:33.495Z,15.3
2017-08-25T02:39:32.673Z,15.3
2017-08-25T02:40:32.116Z,15.3
2017-08-25T02:41:31.447Z,15.3
2017-08-25T02:42:30.522Z,15.3
2017-08-25T02:43:29.863Z,15.3
2017-08-25T02:44:29.180Z,15.3
2017-08-25T02:45:28.754Z,15.3
2017-08-25T02:46:27.689Z,15.3
2017-08-25T02:47:26.875Z,15.3
2017-08-25T02:48:26.297Z,15.3
2017-08-25T02:49:25.732Z,15.3
2017-08-25T02:50:25.176Z,15.3
2017-08-25T02:51:24.115Z,15.3
2017-08-25T02:52:23.299Z,15.3
2017-08-25T02:53:22.614Z,15.3
2017-08-25T02:54:21.924Z,15.3
2017-08-25T02:55:21.251Z,15.3
2017-08-25T02:56:20.818Z,15.3
2017-08-25T02:57:20.011Z,15.3
2017-08-25T02:58:19.211Z,15.3
2017-08-25T02:59:18.389Z,15.3
2017-08-25T03:00:17.706Z,15.3
2017-08-25T03:02:16.527Z,15.2
2017-08-25T03:03:15.334Z,15.2
2017-08-25T03:04:14.918Z,15.2
2017-08-25T03:05:14.283Z,15.2
2017-08-25T03:06:12.977Z,15.2
2017-08-25T03:07:12.407Z,15.2
2017-08-25T03:08:12.243Z,15.2
2017-08-25T03:09:11.182Z,15.2
2017-08-25T03:10:10.365Z,15.3
2017-08-25T03:11:09.688Z,15.3
2017-08-25T03:13:08.021Z,15.3
2017-08-25T03:14:07.583Z,15.3
2017-08-25T03:15:06.651Z,15.3
2017-08-25T03:16:06.100Z,15.3
2017-08-25T03:17:05.481Z,15.3
2017-08-25T03:18:04.679Z,15.3
2017-08-25T03:19:03.993Z,15.3
2017-08-25T03:20:03.321Z,15.3
2017-08-25T03:21:02.515Z,15.3
2017-08-25T03:22:01.949Z,15.3
2017-08-25T03:23:01.261Z,15.3
2017-08-25T03:24:00.569Z,15.3
2017-08-25T03:24:59.250Z,15.3
2017-08-25T03:25:58.808Z,15.3
2017-08-25T03:26:58.253Z,15.3
2017-08-25T03:27:57.820Z,15.3
2017-08-25T03:29:55.773Z,15.3
2017-08-25T03:30:55.466Z,15.3
2017-08-25T03:31:54.914Z,15.3
2017-08-25T03:32:53.985Z,15.2
2017-08-25T03:33:53.054Z,15.2
2017-08-25T03:34:52.492Z,15.2
2017-08-25T03:35:51.940Z,15.2
2017-08-25T03:36:51.004Z,15.2
2017-08-25T03:37:50.457Z,15.2
2017-08-25T03:38:49.268Z,15.2
2017-08-25T03:39:48.590Z,15.2
2017-08-25T03:40:48.027Z,15.1
2017-08-25T03:41:47.346Z,15.1
2017-08-25T03:42:46.659Z,15.1
2017-08-25T03:44:45.364Z,15.1
2017-08-25T03:45:44.684Z,15
2017-08-25T03:46:43.609Z,15
2017-08-25T03:48:42.449Z,15
2017-08-25T03:50:40.656Z,15
2017-08-25T03:51:40.096Z,15
2017-08-25T03:52:39.291Z,15
2017-08-25T03:53:38.862Z,15
2017-08-25T03:54:38.180Z,15
2017-08-25T03:55:36.991Z,15
2017-08-25T03:56:36.189Z,15
2017-08-25T03:57:36.012Z,15
2017-08-25T03:58:34.696Z,15
2017-08-25T03:59:34.629Z,15
2017-08-25T04:00:33.391Z,15
2017-08-25T04:01:32.972Z,15
2017-08-25T04:02:32.169Z,15
2017-08-25T04:03:31.615Z,15
2017-08-25T04:04:30.675Z,15
2017-08-25T04:05:30.236Z,15
2017-08-25T04:06:29.189Z,15
2017-08-25T04:07:28.770Z,15
2017-08-25T04:08:27.950Z,15
2017-08-25T04:09:27.268Z,15
2017-08-25T04:10:26.227Z,15
2017-08-25T04:11:25.539Z,15
2017-08-25T04:12:24.727Z,15
2017-08-25T04:13:24.295Z,15
2017-08-25T04:14:23.743Z,15
2017-08-25T04:15:22.676Z,15
2017-08-25T04:16:21.998Z,15
2017-08-25T04:17:21.571Z,15
2017-08-25T04:18:20.889Z,15
2017-08-25T04:19:19.956Z,15
2017-08-25T04:20:18.894Z,15
2017-08-25T04:21:17.962Z,15
2017-08-25T04:22:17.398Z,15
2017-08-25T04:23:16.719Z,15
2017-08-25T04:24:16.041Z,14.9
2017-08-25T04:25:15.360Z,14.9
2017-08-25T04:26:14.801Z,14.9
2017-08-25T04:27:13.995Z,14.9
2017-08-25T04:28:13.190Z,14.9
2017-08-25T04:29:12.748Z,14.9
2017-08-25T04:30:11.812Z,14.9
2017-08-25T04:31:11.256Z,14.9
2017-08-25T04:32:10.568Z,14.9
2017-08-25T04:33:09.516Z,14.9
2017-08-25T04:34:08.832Z,14.9
2017-08-25T04:35:08.011Z,14.9
2017-08-25T04:36:07.311Z,14.9
2017-08-25T04:37:06.744Z,14.9
2017-08-25T04:38:05.934Z,14.9
2017-08-25T04:40:04.375Z,14.9
2017-08-25T04:41:03.819Z,14.9
2017-08-25T04:42:03.375Z,14.9
2017-08-25T04:43:02.307Z,14.9
2017-08-25T04:44:01.753Z,14.9
2017-08-25T04:45:00.950Z,14.9
2017-08-25T04:46:00.014Z,14.9
2017-08-25T04:46:59.580Z,14.9
2017-08-25T04:47:58.905Z,14.9
2017-08-25T04:48:58.081Z,14.9
2017-08-25T04:49:57.519Z,14.9
2017-08-25T04:50:56.714Z,14.9
2017-08-25T04:51:55.909Z,14.9
2017-08-25T04:52:54.851Z,14.9
2017-08-25T04:53:54.431Z,14.9
2017-08-25T04:54:53.502Z,14.9
2017-08-25T04:55:52.957Z,14.9
2017-08-25T04:56:52.850Z,14.9
2017-08-25T04:57:51.280Z,14.9
2017-08-25T04:58:50.585Z,14.9
2017-08-25T04:59:49.804Z,14.9
2017-08-25T05:00:48.868Z,14.9
2017-08-25T05:01:48.321Z,14.9
2017-08-25T05:02:47.648Z,14.9
2017-08-25T05:03:47.160Z,14.9
2017-08-25T05:04:46.339Z,14.9
2017-08-25T05:05:45.658Z,14.9
2017-08-25T05:06:44.978Z,14.9
2017-08-25T05:07:44.303Z,15
2017-08-25T05:08:43.365Z,15
2017-08-25T05:09:42.807Z,15
2017-08-25T05:10:41.497Z,15
2017-08-25T05:11:40.944Z,15
2017-08-25T05:12:40.387Z,15
2017-08-25T05:13:39.707Z,15
2017-08-25T05:14:38.902Z,15
2017-08-25T05:26:29.982Z,15
2017-08-25T05:27:29.173Z,15
2017-08-25T05:33:24.948Z,15
2017-08-25T05:44:16.768Z,15
2017-08-25T05:44:47.395Z,15
2017-08-25T05:47:14.781Z,15
2017-08-25T05:49:13.485Z,15.1
2017-08-25T05:58:07.166Z,15.2
2017-08-25T05:59:06.349Z,15.2
2017-08-25T06:01:04.685Z,15.2
2017-08-25T06:04:02.528Z,15.3
2017-08-25T06:07:00.128Z,15.3
2017-08-25T06:07:59.575Z,15.3
2017-08-25T06:08:59.015Z,15.3
2017-08-25T06:09:57.964Z,15.3
2017-08-25T06:10:57.529Z,15.3
2017-08-25T06:11:56.967Z,15.3
2017-08-25T06:12:55.775Z,15.3
2017-08-25T06:15:53.373Z,15.4
2017-08-25T06:18:51.581Z,15.5
2017-08-25T06:19:50.646Z,15.6
2017-08-25T06:20:49.826Z,15.6
2017-08-25T06:21:49.529Z,15.6
2017-08-25T06:22:48.838Z,15.6
2017-08-25T06:25:46.182Z,15.7
2017-08-25T06:26:16.681Z,15.7
2017-08-25T06:26:46.811Z,15.8
2017-08-25T06:27:17.177Z,15.8
2017-08-25T06:28:44.303Z,15.9
2017-08-25T06:29:43.755Z,15.9
2017-08-25T06:31:41.823Z,16
2017-08-25T06:32:41.552Z,16
2017-08-25T06:34:40.006Z,16.1
2017-08-25T06:35:39.469Z,16.1
2017-08-25T06:36:38.271Z,16.1
2017-08-25T06:37:37.458Z,16.1
2017-08-25T06:38:37.040Z,16.2
2017-08-25T06:39:36.366Z,16.2
2017-08-25T06:41:35.197Z,16.3
2017-08-25T06:42:34.264Z,16.3
2017-08-25T06:44:32.605Z,16.4
2017-08-25T06:45:31.919Z,16.4
2017-08-25T06:46:31.358Z,16.4
2017-08-25T06:47:30.554Z,16.4
2017-08-25T06:48:29.858Z,16.4
2017-08-25T06:49:29.041Z,16.4
2017-08-25T06:50:28.350Z,16.4
2017-08-25T06:51:27.527Z,16.4
2017-08-25T06:52:27.221Z,16.4
2017-08-25T06:53:26.163Z,16.4
2017-08-25T06:54:25.604Z,16.4
2017-08-25T06:55:24.928Z,16.5
2017-08-25T06:57:23.133Z,16.5
2017-08-25T06:58:22.700Z,16.5
2017-08-25T07:00:21.287Z,16.5
2017-08-25T07:01:20.729Z,16.5
2017-08-25T07:04:18.318Z,16.6
2017-08-25T07:05:17.779Z,16.6
2017-08-25T07:06:17.214Z,16.6
2017-08-25T07:07:16.400Z,16.7
2017-08-25T07:09:15.104Z,16.8
2017-08-25T07:10:14.187Z,16.8
2017-08-25T07:11:13.384Z,16.8
2017-08-25T07:12:12.574Z,16.8
2017-08-25T07:16:10.180Z,16.9
2017-08-25T07:17:09.485Z,16.9
2017-08-25T07:18:08.291Z,17
2017-08-25T07:19:07.732Z,17
2017-08-25T07:21:06.193Z,17.1
2017-08-25T07:24:04.425Z,17.2
2017-08-25T07:25:03.494Z,17.2
2017-08-25T07:27:02.215Z,17.3
2017-08-25T07:29:00.926Z,17.3
2017-08-25T07:30:00.230Z,17.3
2017-08-25T07:31:59.062Z,17.3
2017-08-25T07:32:58.126Z,17.4
2017-08-25T07:34:56.601Z,17.5
2017-08-25T07:35:55.791Z,17.5
2017-08-25T07:36:55.234Z,17.6
2017-08-25T07:37:54.799Z,17.6
2017-08-25T07:39:52.745Z,17.7
2017-08-25T07:40:52.432Z,17.7
2017-08-25T07:43:50.527Z,17.7
2017-08-25T07:45:48.987Z,17.8
2017-08-25T07:46:48.423Z,17.8
2017-08-25T07:48:46.501Z,17.8
2017-08-25T07:50:45.589Z,17.8
2017-08-25T07:54:42.946Z,18
2017-08-25T07:55:41.887Z,18.1
2017-08-25T07:57:40.476Z,18.2
2017-08-25T07:58:40.296Z,18.2
2017-08-25T08:02:37.261Z,18.3
2017-08-25T08:03:36.567Z,18.4
2017-08-25T08:04:07.194Z,18.4
2017-08-25T08:05:35.321Z,18.5
2017-08-25T08:08:33.039Z,18.4
2017-08-25T08:11:31.128Z,18.5
2017-08-25T08:12:30.184Z,18.5
2017-08-25T08:13:29.876Z,18.5
2017-08-25T08:17:26.981Z,18.8
2017-08-25T08:18:26.313Z,18.8
2017-08-25T08:21:24.540Z,18.9
2017-08-25T08:22:23.489Z,18.9
2017-08-25T08:23:23.297Z,18.9
2017-08-25T08:25:21.491Z,19
2017-08-25T08:26:20.945Z,19
2017-08-25T08:27:20.249Z,19
2017-08-25T08:28:19.691Z,19
2017-08-25T08:29:19.277Z,19.1
2017-08-25T08:31:17.725Z,19.1
2017-08-25T08:34:15.696Z,19.1
2017-08-25T08:35:14.890Z,19.1
2017-08-25T08:36:14.317Z,19.1
2017-08-25T08:37:13.629Z,19.2
2017-08-25T08:39:12.326Z,19.3
2017-08-25T08:41:11.172Z,19.3
2017-08-25T08:42:10.239Z,19.3
2017-08-25T08:43:09.552Z,19.3
2017-08-25T08:44:09.009Z,19.3
2017-08-25T08:45:08.203Z,19.4
2017-08-25T08:48:06.662Z,19.5
2017-08-25T08:49:05.855Z,19.5
2017-08-25T08:50:05.155Z,19.5
2017-08-25T08:51:04.597Z,19.5
2017-08-25T08:52:03.532Z,19.6
2017-08-25T08:53:02.705Z,19.7
2017-08-25T08:56:00.917Z,19.8
2017-08-25T08:57:00.361Z,19.8
2017-08-25T08:57:59.807Z,19.8
2017-08-25T08:58:58.995Z,19.8
2017-08-25T09:01:56.960Z,19.8
2017-08-25T09:02:56.668Z,19.8
2017-08-25T09:04:55.122Z,19.8
2017-08-25T09:05:54.437Z,19.8
2017-08-25T09:06:53.679Z,19.8
2017-08-25T09:07:53.372Z,19.9
2017-08-25T09:08:52.685Z,19.9
2017-08-25T09:10:51.263Z,20
2017-08-25T09:11:50.708Z,20
2017-08-25T09:12:49.768Z,20
2017-08-25T09:13:49.220Z,20
2017-08-25T09:16:47.321Z,20
2017-08-25T09:17:46.767Z,20
2017-08-25T09:18:46.081Z,20
2017-08-25T09:19:45.532Z,20.1
2017-08-25T09:20:44.721Z,20.1
2017-08-25T09:21:43.908Z,20.1
2017-08-25T09:25:42.016Z,20.2
2017-08-25T09:30:38.379Z,20.3
2017-08-25T09:31:37.817Z,20.3
2017-08-25T09:32:37.137Z,20.3
2017-08-25T09:33:36.569Z,20.3
2017-08-25T09:38:33.441Z,20.5
2017-08-25T09:39:32.752Z,20.5
2017-08-25T09:41:31.699Z,20.5
2017-08-25T09:42:31.001Z,20.5
2017-08-25T09:43:30.191Z,20.5
2017-08-25T09:46:28.534Z,20.6
2017-08-25T09:49:26.629Z,20.7
2017-08-25T09:50:26.076Z,20.7
2017-08-25T09:52:24.525Z,20.8
2017-08-25T09:55:22.744Z,20.8
2017-08-25T09:58:21.093Z,21
2017-08-25T09:59:20.033Z,21
2017-08-25T10:01:18.877Z,21.1
2017-08-25T10:02:18.705Z,21.1
2017-08-25T10:03:17.640Z,21.2
2017-08-25T10:04:17.093Z,21.2
2017-08-25T10:05:16.650Z,21.2
2017-08-25T10:06:15.837Z,21.2
2017-08-25T10:07:15.287Z,21.2
2017-08-25T10:09:14.128Z,21.3
2017-08-25T10:10:13.316Z,21.3
2017-08-25T10:11:12.635Z,21.3
2017-08-25T10:12:12.461Z,21.3
2017-08-25T10:14:11.046Z,21.4
2017-08-25T10:15:10.489Z,21.5
2017-08-25T10:16:09.931Z,21.6
2017-08-25T10:17:09.369Z,21.7
2017-08-25T10:18:08.301Z,21.7
2017-08-25T10:19:07.987Z,21.8
2017-08-25T10:20:07.536Z,21.8
2017-08-25T10:22:06.370Z,21.8
2017-08-25T10:25:04.218Z,21.8
2017-08-25T10:26:03.532Z,21.8
2017-08-25T10:27:03.346Z,21.9
2017-08-25T10:28:02.656Z,21.9
2017-08-25T10:29:01.961Z,21.9
2017-08-25T10:30:01.389Z,21.9
2017-08-25T10:32:59.737Z,21.8
2017-08-25T10:33:58.958Z,21.8
2017-08-25T10:34:58.268Z,21.7
2017-08-25T10:35:57.844Z,21.7
2017-08-25T10:36:56.783Z,21.6
2017-08-25T10:37:56.596Z,21.6
2017-08-25T10:38:56.166Z,21.6
2017-08-25T10:40:54.877Z,21.6
2017-08-25T10:41:54.321Z,21.5
2017-08-25T10:43:52.890Z,21.5
2017-08-25T10:44:52.457Z,21.5
2017-08-25T10:45:51.903Z,21.5
2017-08-25T10:46:51.092Z,21.5
2017-08-25T10:47:50.410Z,21.6
2017-08-25T10:48:49.979Z,21.6
2017-08-25T10:49:49.175Z,21.6
2017-08-25T10:50:49.008Z,21.7
2017-08-25T10:51:48.328Z,21.8
2017-08-25T10:52:47.654Z,21.8
2017-08-25T10:53:46.845Z,21.8
2017-08-25T10:55:45.799Z,21.9
2017-08-25T11:00:42.802Z,22.3
2017-08-25T11:03:40.776Z,22.4
2017-08-25T11:04:40.717Z,22.4
2017-08-25T11:05:40.032Z,22.4
2017-08-25T11:06:39.601Z,22.5
2017-08-25T11:07:38.656Z,22.5
2017-08-25T11:08:37.830Z,22.6
2017-08-25T11:09:37.647Z,22.6
2017-08-25T11:10:36.960Z,22.6
2017-08-25T11:11:36.526Z,22.7
2017-08-25T11:12:35.974Z,22.7
2017-08-25T11:13:35.414Z,22.8
2017-08-25T11:16:33.510Z,22.7
2017-08-25T11:19:31.728Z,22.7
2017-08-25T11:21:30.562Z,22.7
2017-08-25T11:23:29.673Z,22.8
2017-08-25T11:24:28.993Z,22.9
2017-08-25T11:25:28.578Z,22.9
2017-08-25T11:27:27.539Z,23
2017-08-25T11:28:26.719Z,23
2017-08-25T11:30:25.429Z,23.1
2017-08-25T11:31:24.868Z,23.2
2017-08-25T11:35:22.598Z,23.1
2017-08-25T11:35:52.716Z,23.1
2017-08-25T11:38:21.132Z,23.1
2017-08-25T11:39:20.583Z,23
2017-08-25T11:43:18.316Z,23
2017-08-25T11:44:17.886Z,23
2017-08-25T11:45:16.951Z,23.1
2017-08-25T11:47:15.912Z,23.1
2017-08-25T11:50:14.639Z,23.2
2017-08-25T11:51:13.705Z,23.2
2017-08-25T11:52:13.145Z,23.3
2017-08-25T11:55:11.236Z,23.4
2017-08-25T11:57:10.518Z,23.3
2017-08-25T11:58:09.841Z,23.4
2017-08-25T11:59:09.529Z,23.5
2017-08-25T12:00:08.856Z,23.6
2017-08-25T12:01:08.172Z,23.6
2017-08-25T12:02:07.615Z,23.6
2017-08-25T12:06:05.614Z,23.8
2017-08-25T12:07:05.079Z,23.7
2017-08-25T12:08:04.638Z,23.7
2017-08-25T12:10:03.346Z,23.7
2017-08-25T12:11:02.534Z,23.6
2017-08-25T12:13:01.626Z,23.8
2017-08-25T12:14:01.070Z,23.6
2017-08-25T12:15:00.762Z,23.6
2017-08-25T12:15:59.960Z,23.7
2017-08-25T12:16:59.281Z,23.7
2017-08-25T12:17:59.219Z,23.8
2017-08-25T12:18:58.521Z,23.8
2017-08-25T12:19:57.820Z,23.9
2017-08-25T12:20:57.140Z,24
2017-08-25T12:21:56.584Z,24
2017-08-25T12:22:56.535Z,24
2017-08-25T12:23:55.720Z,24
2017-08-25T12:24:55.159Z,24.2
2017-08-25T12:26:54.368Z,24.1
2017-08-25T12:27:53.566Z,24.2
2017-08-25T12:28:53.264Z,24.3
2017-08-25T12:29:23.642Z,24.3
2017-08-25T12:29:54.273Z,24.4
2017-08-25T12:30:24.643Z,24.4
2017-08-25T12:30:55.019Z,24.3
2017-08-25T12:31:25.397Z,24.3
2017-08-25T12:33:50.399Z,24.3
2017-08-25T12:34:49.841Z,24.2
2017-08-25T12:35:49.027Z,24.4
2017-08-25T12:36:48.725Z,24.4
2017-08-25T12:37:48.304Z,24.4
2017-08-25T12:38:47.623Z,24.4
2017-08-25T12:39:47.450Z,24.3
2017-08-25T12:40:47.020Z,24.1
2017-08-25T12:41:17.397Z,24.1
2017-08-25T12:42:46.021Z,24.2
2017-08-25T12:43:45.345Z,24.3
2017-08-25T12:44:44.532Z,24.4
2017-08-25T12:45:44.099Z,24.4
2017-08-25T12:46:43.410Z,24.5
2017-08-25T12:47:42.737Z,24.5
2017-08-25T12:48:42.818Z,24.6
2017-08-25T12:49:41.784Z,24.6
2017-08-25T12:50:41.596Z,24.7
2017-08-25T12:51:40.653Z,24.5
2017-08-25T12:52:40.603Z,24.5
2017-08-25T12:53:39.946Z,24.5
2017-08-25T12:54:39.395Z,24.4
2017-08-25T12:55:38.700Z,24.5
2017-08-25T12:56:38.644Z,24.4
2017-08-25T12:57:38.220Z,24.4
2017-08-25T12:58:37.423Z,24.3
2017-08-25T12:59:36.994Z,24.4
2017-08-25T13:01:35.840Z,24.8
2017-08-25T13:02:35.295Z,24.8
2017-08-25T13:03:34.613Z,24.9
2017-08-25T13:04:34.311Z,25
2017-08-25T13:05:33.867Z,25.1
2017-08-25T13:06:33.307Z,25.2
2017-08-25T13:07:32.876Z,25.2
2017-08-25T13:08:31.934Z,25.2
2017-08-25T13:09:31.735Z,25.2
2017-08-25T13:10:31.047Z,25.2
2017-08-25T13:11:30.741Z,25.2
2017-08-25T13:12:30.061Z,25.3
2017-08-25T13:13:30.008Z,25.3
2017-08-25T13:14:28.958Z,25.4
2017-08-25T13:15:28.764Z,25.4
2017-08-25T13:16:28.326Z,25.5
2017-08-25T13:17:27.792Z,25.4
2017-08-25T13:18:27.231Z,25.5
2017-08-25T13:19:26.681Z,25.2
2017-08-25T13:20:26.003Z,25.3
2017-08-25T13:21:25.697Z,25
2017-08-25T13:22:25.008Z,25.1
2017-08-25T13:23:24.829Z,25.1
2017-08-25T13:24:24.135Z,25
2017-08-25T13:25:23.574Z,25
2017-08-25T13:26:23.394Z,25.1
2017-08-25T13:27:22.846Z,25.2
2017-08-25T13:28:22.165Z,25.3
2017-08-25T13:29:21.727Z,25.4
2017-08-25T13:30:21.160Z,25.4
2017-08-25T13:31:20.743Z,25.4
2017-08-25T13:32:20.066Z,25.5
2017-08-25T13:34:19.146Z,25.6
2017-08-25T13:35:18.597Z,25.6
2017-08-25T13:36:18.417Z,25.3
2017-08-25T13:37:17.605Z,25.2
2017-08-25T13:38:17.050Z,25.3
2017-08-25T13:38:47.680Z,25.3
2017-08-25T13:39:17.932Z,25.3
2017-08-25T13:39:48.196Z,25.3
2017-08-25T13:41:15.577Z,25.2
2017-08-25T13:43:14.783Z,25.4
2017-08-25T13:44:14.498Z,25.4
2017-08-25T13:45:14.054Z,25.6
2017-08-25T13:46:13.383Z,25.7
2017-08-25T13:47:13.204Z,25.8
2017-08-25T13:49:12.151Z,25.7
2017-08-25T13:50:11.339Z,25.5
2017-08-25T13:51:11.027Z,25.5
2017-08-25T13:52:10.594Z,25.6
2017-08-25T13:53:10.044Z,25.5
2017-08-25T13:54:09.111Z,25.5
2017-08-25T13:58:07.347Z,25.6
2017-08-25T14:05:04.502Z,25.4
2017-08-25T14:07:03.334Z,25.5
2017-08-25T14:08:02.786Z,25.6
2017-08-25T14:10:01.871Z,25.9
2017-08-25T14:12:01.221Z,26.1
2017-08-25T14:12:31.467Z,26.1
2017-08-25T14:13:01.974Z,26.1
2017-08-25T14:16:58.820Z,25.9
2017-08-25T14:17:58.266Z,25.8
2017-08-25T14:18:57.833Z,25.8
2017-08-25T14:28:53.160Z,25.4
2017-08-25T14:30:52.254Z,25.3
2017-08-25T14:31:51.695Z,25.2
2017-08-25T14:33:50.898Z,25.5
2017-08-25T14:39:47.804Z,25.7
2017-08-25T14:44:45.821Z,25.3
2017-08-25T14:45:45.388Z,25.2
2017-08-25T14:51:42.531Z,25.2
2017-08-25T14:57:39.798Z,25.5
2017-08-25T14:58:39.241Z,25.5
2017-08-25T16:19:00.260Z,24.5
2017-08-25T16:20:59.353Z,24.4
2017-08-25T16:21:58.668Z,24.3
2017-08-25T16:23:57.364Z,24.1
2017-08-25T16:36:50.741Z,24
2017-08-25T16:38:50.073Z,24
2017-08-25T16:39:49.508Z,24
2017-08-25T16:40:49.062Z,24
2017-08-25T16:41:48.254Z,24
2017-08-25T16:45:46.742Z,23.9
2017-08-25T16:48:44.719Z,23.8
2017-08-25T16:49:44.526Z,23.8
2017-08-25T16:50:44.102Z,23.7
2017-08-25T16:51:43.657Z,23.8
2017-08-25T16:52:42.842Z,23.7
2017-08-25T16:53:42.784Z,23.7
2017-08-25T16:54:42.103Z,23.7
2017-08-25T16:55:41.302Z,23.7
2017-08-25T16:56:41.118Z,23.7
2017-08-25T16:57:40.044Z,23.6
2017-08-25T16:58:39.728Z,23.6
2017-08-25T16:59:39.168Z,23.6
2017-08-25T17:00:38.981Z,23.6
2017-08-25T17:01:38.186Z,23.6
2017-08-25T17:02:38.123Z,23.5
2017-08-25T17:03:37.185Z,23.5
2017-08-25T17:04:36.626Z,23.5
2017-08-25T17:05:36.443Z,23.5
2017-08-25T17:06:35.637Z,23.4
2017-08-25T17:07:35.089Z,23.4
2017-08-25T17:08:34.532Z,23.3
2017-08-25T17:09:33.974Z,23.3
2017-08-25T17:10:33.523Z,23.2
2017-08-25T17:11:33.081Z,23.2
2017-08-25T17:12:32.767Z,23.2
2017-08-25T17:13:32.216Z,23.1
2017-08-25T17:14:31.660Z,23.1
2017-08-25T17:15:30.864Z,23
2017-08-25T17:16:01.241Z,23
2017-08-25T17:16:31.504Z,23
2017-08-25T17:17:01.872Z,23
2017-08-25T17:17:32.494Z,22.9
2017-08-25T17:18:02.741Z,22.9
2017-08-25T17:18:32.994Z,22.8
2017-08-25T17:19:03.492Z,22.8
2017-08-25T17:19:33.876Z,22.8
2017-08-25T17:22:27.307Z,22.6
2017-08-25T17:23:26.769Z,22.6
2017-08-25T17:24:25.956Z,22.5
2017-08-25T17:25:25.645Z,22.5
2017-08-25T17:26:25.084Z,22.5
2017-08-25T17:27:24.530Z,22.4
2017-08-25T17:28:23.836Z,22.4
2017-08-25T17:29:23.662Z,22.3
2017-08-25T17:30:23.236Z,22.3
2017-08-25T17:31:22.179Z,22.3
2017-08-25T17:32:22.604Z,22.2
2017-08-25T17:33:21.673Z,22.1
2017-08-25T17:35:20.510Z,22
2017-08-25T17:36:19.837Z,22
2017-08-25T17:37:19.398Z,21.9
2017-08-25T17:38:18.588Z,21.8
2017-08-25T17:39:18.278Z,21.8
2017-08-25T17:41:17.248Z,21.6
2017-08-25T17:42:16.194Z,21.5
2017-08-25T17:43:15.888Z,21.5
2017-08-25T17:44:15.462Z,21.4
2017-08-25T17:45:14.696Z,21.4
2017-08-25T17:46:14.146Z,21.3
2017-08-25T17:47:13.842Z,21.3
2017-08-25T17:48:13.168Z,21.2
2017-08-25T17:49:12.364Z,21.2
2017-08-25T17:50:11.954Z,21.2
2017-08-25T17:51:11.125Z,21.1
2017-08-25T17:52:11.066Z,21.1
2017-08-25T17:53:10.377Z,21.1
2017-08-25T17:54:09.818Z,21.1
2017-08-25T17:55:08.884Z,21
2017-08-25T17:56:08.707Z,21
2017-08-25T17:57:07.778Z,21
2017-08-25T17:58:07.725Z,20.9
2017-08-25T17:59:07.173Z,20.9
2017-08-25T18:01:05.501Z,20.9
2017-08-25T18:02:05.451Z,20.9
2017-08-25T18:03:04.274Z,20.8
2017-08-25T18:05:03.369Z,20.8
2017-08-25T18:07:02.205Z,20.7
2017-08-25T18:08:01.911Z,20.7
2017-08-25T18:09:01.223Z,20.7
2017-08-25T18:10:00.541Z,20.7
2017-08-25T18:10:30.921Z,20.7
2017-08-25T18:11:59.318Z,20.6
2017-08-25T18:12:29.562Z,20.6
2017-08-25T18:13:00.325Z,20.6
2017-08-25T18:13:58.144Z,20.6
2017-08-25T18:14:57.843Z,20.5
2017-08-25T18:17:55.816Z,20.4
2017-08-25T18:19:54.391Z,20.3
2017-08-25T18:20:54.088Z,20.3
2017-08-25T18:21:53.667Z,20.3
2017-08-25T18:22:53.099Z,20.3
2017-08-25T18:23:52.429Z,20.2
2017-08-25T18:24:51.628Z,20.2
2017-08-25T18:26:50.709Z,20.2
2017-08-25T18:27:50.309Z,20.1
2017-08-25T18:28:49.244Z,20.1
2017-08-25T18:29:48.688Z,20.1
2017-08-25T18:30:47.878Z,20.1
2017-08-25T18:31:47.445Z,20
2017-08-25T18:32:47.144Z,20
2017-08-25T18:33:46.480Z,20
2017-08-25T18:34:45.793Z,19.9
2017-08-25T18:35:45.487Z,19.9
2017-08-25T18:36:44.302Z,19.9
2017-08-25T18:37:43.985Z,19.8
2017-08-25T18:38:43.433Z,19.8
2017-08-25T18:39:42.768Z,19.8
2017-08-25T18:40:42.246Z,19.7
2017-08-25T18:41:41.953Z,19.7
2017-08-25T18:42:40.905Z,19.6
2017-08-25T18:43:40.498Z,19.6
2017-08-25T18:44:39.940Z,19.6
2017-08-25T18:45:39.138Z,19.5
2017-08-25T18:46:38.570Z,19.5